Aérodrome :
LOGIN :

S'inscrire | Disclaimer

   EN    FR    IT 

 










Légende :    VFR   VFR Marginal   IFR   IFR Intensif   IFR Très Intensif
Visi : 
Plafond : 
>= 8 km
>= 3000ft
5 à 8 km
1000 à 3000 ft
1500m à 5 km
500 à 1000 ft
800 à 1500m
200 à 500 ft
< 800m
< 200 ft
Symboles :   Orages  Brouillard  Fortes neiges  Fortes précipitations  Vent > 20 kt
SIGMETs :   Divers  Orages  Givrage  Turbulence  Onde Orograph.  Cendres Volcan.







- Altitude de l'aérodrome : 1416 ft
- Code IATA : ZRH


LSZH - Zurich

DERNIER METAR :
  • 211720Z VRB01KT CAVOK 16/07 Q1019 NOSIG

METARs EXPIRÉS :
  • 211650Z 03003KT 350V060 CAVOK 16/06 Q1019 NOSIG
  • 211620Z 04005KT 010V080 CAVOK 17/06 Q1019 NOSIG
  • 211550Z 04006KT 010V070 CAVOK 17/06 Q1019 NOSIG
  • 211520Z 04006KT 350V100 CAVOK 18/06 Q1019 NOSIG
  • 211450Z 04007KT 010V080 CAVOK 18/05 Q1019 NOSIG

TAF TAF LSZH
Valide du 21 à 18h jusqu'au 23 à 00h UTC


211725Z 2118/2224 04005KT CAVOK TX20/2214Z TN04/2204Z
BECMG 2118/2120 VRB03KT
BECMG 2200/2203 1200 PRFG BKN003
PROB40 2203/2208 0500 FG VV002
BECMG 2208/2210 CAVOK
ATIS : +41 43 816 2295 (DEP) +41 43 816 2294 (ARR)
Pas de NOTAMs connus pour ce terrain.



MET'MAP, la Météo Aéronautique d'un coup d'oeil ! - Copyright ORBIFLY Décembre 2007 - Disclaimer

ORBIFLY MET'MAP TEAM :

Programmation & Développement : Alexandra Zaïnal
Conception & Développement : Baudouin d'Aumeries
Co-Programmation & Développement : Marc-Olivier Méhu
Soutien technique & logistique : Manuel Goepfert

Contact : metmap@orbifly.com




SOURCES & CREDITS :

   NOAA